createdAt,value
2023-10-02T00:01:25.401Z,7.90
2023-10-02T00:04:11.885Z,7.30
2023-10-02T00:06:39.887Z,8.13
2023-10-02T00:09:07.305Z,8.63
2023-10-02T00:11:38.229Z,8.53
2023-10-02T00:14:30.839Z,8.60
2023-10-02T00:17:02.947Z,8.20
2023-10-02T00:19:30.462Z,8.70
2023-10-02T00:21:58.922Z,7.97
2023-10-02T00:24:27.035Z,8.43
2023-10-02T00:26:58.805Z,8.63
2023-10-02T00:29:29.291Z,9.30
2023-10-02T00:31:57.510Z,8.80
2023-10-02T00:34:34.259Z,8.30
2023-10-02T00:37:13.575Z,9.20
2023-10-02T00:39:42.572Z,9.30
2023-10-02T00:42:25.881Z,9.17
2023-10-02T00:44:57.880Z,9.23
2023-10-02T00:47:42.713Z,9.67
2023-10-02T00:50:15.193Z,9.50
2023-10-02T00:52:44.011Z,9.50
2023-10-02T00:55:36.398Z,9.30
2023-10-02T00:58:06.157Z,9.57
2023-10-02T01:00:38.244Z,9.53
2023-10-02T01:03:10.105Z,9.80
2023-10-02T01:05:49.098Z,8.30
2023-10-02T01:08:44.088Z,8.80
2023-10-02T01:11:15.227Z,8.57
2023-10-02T01:13:42.934Z,7.97
2023-10-02T01:16:10.861Z,9.37
2023-10-02T01:18:38.646Z,8.80
2023-10-02T01:21:14.085Z,8.43
2023-10-02T01:24:09.808Z,9.23
2023-10-02T01:26:37.850Z,9.00
2023-10-02T01:29:07.303Z,9.23
2023-10-02T01:31:43.524Z,8.97
2023-10-02T01:34:11.618Z,9.03
2023-10-02T01:36:42.473Z,8.83
2023-10-02T01:39:16.048Z,8.93
2023-10-02T01:41:49.853Z,9.13
2023-10-02T01:44:21.599Z,9.53
2023-10-02T01:46:54.106Z,9.30
2023-10-02T01:49:29.107Z,9.00
2023-10-02T01:52:03.482Z,9.50
2023-10-02T01:54:30.854Z,9.00
2023-10-02T01:56:58.322Z,9.87
2023-10-02T01:59:25.939Z,9.30
2023-10-02T02:01:56.612Z,9.33
2023-10-02T02:04:24.707Z,9.40
2023-10-02T02:06:56.165Z,8.70
2023-10-02T02:09:24.760Z,9.73
2023-10-02T02:12:15.179Z,9.63
2023-10-02T02:14:43.015Z,9.03
2023-10-02T02:17:12.297Z,9.33
2023-10-02T02:19:49.189Z,9.30
2023-10-02T02:22:27.632Z,9.37
2023-10-02T02:24:59.526Z,9.63
2023-10-02T02:27:27.143Z,10.03
2023-10-02T02:29:58.093Z,10.00
2023-10-02T02:32:38.863Z,9.43
2023-10-02T02:35:07.779Z,8.97
2023-10-02T02:37:35.276Z,9.93
2023-10-02T02:40:24.514Z,10.17
2023-10-02T02:42:53.109Z,10.37
2023-10-02T02:45:32.022Z,11.00
2023-10-02T02:48:07.699Z,10.33
2023-10-02T02:50:44.779Z,10.93
2023-10-02T02:53:29.184Z,9.90
2023-10-02T02:56:17.529Z,9.47
2023-10-02T02:58:49.625Z,10.13
2023-10-02T03:01:23.074Z,10.50
2023-10-02T03:03:51.121Z,10.47
2023-10-02T03:06:19.868Z,10.10
2023-10-02T03:08:47.210Z,10.63
2023-10-02T03:11:20.630Z,10.20
2023-10-02T03:13:48.569Z,10.13
2023-10-02T03:16:31.203Z,10.47
2023-10-02T03:18:58.668Z,11.43
2023-10-02T03:21:26.245Z,10.23
2023-10-02T03:24:01.977Z,10.87
2023-10-02T03:26:35.918Z,10.33
2023-10-02T03:29:13.160Z,10.40
2023-10-02T03:31:45.738Z,9.70
2023-10-02T03:34:29.660Z,10.30
2023-10-02T03:37:01.238Z,11.17
2023-10-02T03:39:50.883Z,10.60
2023-10-02T03:42:23.323Z,10.73
2023-10-02T03:44:51.633Z,11.13
2023-10-02T03:47:19.496Z,11.57
2023-10-02T03:49:47.090Z,10.73
2023-10-02T03:52:18.066Z,11.10
2023-10-02T03:54:46.037Z,11.30
2023-10-02T03:57:35.285Z,11.90
2023-10-02T04:00:32.534Z,10.67
2023-10-02T04:03:01.179Z,11.03
2023-10-02T04:05:44.669Z,11.33
2023-10-02T04:08:39.316Z,11.13
2023-10-02T04:11:06.516Z,10.60
2023-10-02T04:13:36.156Z,10.93
2023-10-02T04:16:22.979Z,10.67
2023-10-02T04:18:51.223Z,11.20
2023-10-02T04:21:26.368Z,11.00
2023-10-02T04:23:58.413Z,11.47
2023-10-02T04:26:29.621Z,11.13
2023-10-02T04:28:59.987Z,11.60
2023-10-02T04:31:32.062Z,10.47
2023-10-02T04:34:26.007Z,11.33
2023-10-02T04:36:53.429Z,11.17
2023-10-02T04:39:34.147Z,11.07
2023-10-02T04:42:13.881Z,10.20
2023-10-02T04:45:07.790Z,11.30
2023-10-02T04:47:36.983Z,10.53
2023-10-02T04:50:06.356Z,10.97
2023-10-02T04:52:56.552Z,10.80
2023-10-02T04:55:25.792Z,10.07
2023-10-02T04:57:55.698Z,10.50
2023-10-02T05:00:33.892Z,10.17
2023-10-02T05:03:19.728Z,10.50
2023-10-02T05:05:51.121Z,9.80
2023-10-02T05:08:39.269Z,10.33
2023-10-02T05:11:06.875Z,10.83
2023-10-02T05:13:53.524Z,10.37
2023-10-02T05:16:31.095Z,10.27
2023-10-02T05:18:58.527Z,10.93
2023-10-02T05:21:40.375Z,10.10
2023-10-02T05:24:08.523Z,10.60
2023-10-02T05:26:37.386Z,10.23
2023-10-02T05:29:10.482Z,10.67
2023-10-02T05:31:42.042Z,11.83
2023-10-02T05:34:09.749Z,11.47
2023-10-02T05:36:37.019Z,11.23
2023-10-02T05:39:23.122Z,11.97
2023-10-02T05:41:52.757Z,13.23
2023-10-02T05:44:24.558Z,14.10
2023-10-02T05:47:06.325Z,16.03
2023-10-02T05:49:34.442Z,13.80
2023-10-02T05:52:01.978Z,12.53
2023-10-02T05:54:36.764Z,11.80
2023-10-02T05:57:09.978Z,15.17
2023-10-02T05:59:46.950Z,13.20
2023-10-02T06:02:21.395Z,15.33
2023-10-02T06:04:49.403Z,12.10
2023-10-02T06:07:40.348Z,13.87
2023-10-02T06:10:19.671Z,12.47
2023-10-02T06:12:49.092Z,12.10
2023-10-02T06:15:35.061Z,11.03
2023-10-02T06:18:03.441Z,15.20
2023-10-02T06:20:30.855Z,15.00
2023-10-02T06:23:18.008Z,10.30
2023-10-02T06:25:45.230Z,10.77
2023-10-02T06:28:26.936Z,10.10
2023-10-02T06:30:55.830Z,11.23
2023-10-02T06:33:23.435Z,12.10
2023-10-02T06:36:01.681Z,10.80
2023-10-02T06:38:31.200Z,12.20
2023-10-02T06:40:59.143Z,12.50
2023-10-02T06:43:37.184Z,9.50
2023-10-02T06:46:20.412Z,9.20
2023-10-02T06:48:48.469Z,14.37
2023-10-02T06:51:15.784Z,11.93
2023-10-02T06:53:44.245Z,8.43
2023-10-02T06:56:13.653Z,8.70
2023-10-02T06:58:50.491Z,8.03
2023-10-02T07:01:21.263Z,8.13
2023-10-02T07:03:53.230Z,8.57
2023-10-02T07:06:21.584Z,7.27
2023-10-02T07:08:49.501Z,6.77
2023-10-02T07:11:19.908Z,6.30
2023-10-02T07:13:57.627Z,6.40
2023-10-02T07:16:27.795Z,6.00
2023-10-02T07:18:59.383Z,6.10
2023-10-02T07:21:28.719Z,6.00
2023-10-02T07:23:56.019Z,5.80
2023-10-02T07:26:43.309Z,7.27
2023-10-02T07:29:10.541Z,6.87
2023-10-02T07:31:37.783Z,6.83
2023-10-02T07:34:09.160Z,6.60
2023-10-02T07:36:45.942Z,5.83
2023-10-02T07:39:39.994Z,5.75
2023-10-02T07:42:11.162Z,6.30
2023-10-02T07:44:39.835Z,6.07
2023-10-02T07:47:12.531Z,6.47
2023-10-02T07:49:41.072Z,6.43
2023-10-02T07:52:13.084Z,5.93
2023-10-02T07:54:46.480Z,6.18
2023-10-02T07:57:14.425Z,5.93
2023-10-02T07:59:45.120Z,5.97
2023-10-02T08:02:25.390Z,6.20
2023-10-02T08:04:53.120Z,6.57
2023-10-02T08:07:30.651Z,6.47
2023-10-02T08:10:08.207Z,6.75
2023-10-02T08:12:37.232Z,7.15
2023-10-02T08:15:05.208Z,7.20
2023-10-02T08:17:32.857Z,7.20
2023-10-02T08:20:01.046Z,7.40
2023-10-02T08:22:38.713Z,8.20
2023-10-02T08:25:14.194Z,8.80
2023-10-02T08:27:45.025Z,8.52
2023-10-02T08:30:31.223Z,9.60
2023-10-02T08:33:22.848Z,9.23
2023-10-02T08:35:57.836Z,9.80
2023-10-02T08:38:25.717Z,8.73
2023-10-02T08:40:59.999Z,7.93
2023-10-02T08:43:31.173Z,8.30
2023-10-02T08:45:58.514Z,8.63
2023-10-02T08:48:26.680Z,7.97
2023-10-02T08:50:58.587Z,8.10
2023-10-02T08:53:27.415Z,8.10
2023-10-02T08:56:22.654Z,8.55
2023-10-02T08:59:08.930Z,8.05
2023-10-02T09:01:36.147Z,8.52
2023-10-02T09:04:24.021Z,9.02
2023-10-02T09:06:59.203Z,8.00
2023-10-02T09:09:37.530Z,8.57
2023-10-02T09:12:05.259Z,8.68
2023-10-02T09:14:35.268Z,7.82
2023-10-02T09:17:17.905Z,7.45
2023-10-02T09:19:54.627Z,7.90
2023-10-02T09:22:24.301Z,7.72
2023-10-02T09:25:22.374Z,8.60
2023-10-02T09:27:58.697Z,8.63
2023-10-02T09:30:37.940Z,8.40
2023-10-02T09:33:29.110Z,8.30
2023-10-02T09:36:09.727Z,8.38
2023-10-02T09:38:52.683Z,8.70
2023-10-02T09:41:21.491Z,8.20
2023-10-02T09:46:18.181Z,8.10
2023-10-02T09:49:04.959Z,7.90
2023-10-02T09:51:45.794Z,7.55
2023-10-02T09:54:35.255Z,8.02
2023-10-02T09:57:14.886Z,8.23
2023-10-02T09:59:49.273Z,8.20
2023-10-02T10:02:37.778Z,8.43
2023-10-02T10:05:08.828Z,8.80
2023-10-02T10:07:48.380Z,8.73
2023-10-02T10:10:48.446Z,8.45
2023-10-02T10:13:55.294Z,7.93
2023-10-02T10:16:24.846Z,8.05
2023-10-02T10:19:18.213Z,8.00
2023-10-02T10:22:11.777Z,7.95
2023-10-02T10:24:58.404Z,8.23
2023-10-02T10:27:41.053Z,7.47
2023-10-02T10:30:23.490Z,8.07
2023-10-02T10:33:17.259Z,8.00
2023-10-02T10:35:53.008Z,7.18
2023-10-02T10:38:35.064Z,7.57
2023-10-02T10:41:15.997Z,7.57
2023-10-02T10:44:02.495Z,7.20
2023-10-02T10:46:33.372Z,8.32
2023-10-02T10:49:11.375Z,7.85
2023-10-02T10:51:39.520Z,8.00
2023-10-02T10:54:50.869Z,8.80
2023-10-02T10:57:28.287Z,8.63
2023-10-02T11:00:25.990Z,9.52
2023-10-02T11:02:58.348Z,9.27
2023-10-02T11:05:25.730Z,8.90
2023-10-02T11:07:53.560Z,8.70
2023-10-02T11:10:26.156Z,8.35
2023-10-02T11:13:01.076Z,9.48
2023-10-02T11:15:58.963Z,9.32
2023-10-02T11:18:28.419Z,9.00
2023-10-02T11:20:56.528Z,9.90
2023-10-02T11:23:41.850Z,9.60
2023-10-02T11:26:14.070Z,9.05
2023-10-02T11:28:43.096Z,9.75
2023-10-02T11:31:46.820Z,9.10
2023-10-02T11:36:56.880Z,8.60
2023-10-02T11:39:30.002Z,7.88
2023-10-02T11:41:57.433Z,8.18
2023-10-02T11:44:25.740Z,7.68
2023-10-02T11:46:53.212Z,8.02
2023-10-02T11:49:20.401Z,7.90
2023-10-02T11:51:47.530Z,7.88
2023-10-02T11:54:15.596Z,7.75
2023-10-02T11:56:44.488Z,8.48
2023-10-02T11:59:15.723Z,8.63
2023-10-02T12:01:48.256Z,8.48
2023-10-02T12:04:16.290Z,8.27
2023-10-02T12:06:44.121Z,8.50
2023-10-02T12:09:19.218Z,7.35
2023-10-02T12:11:46.851Z,7.53
2023-10-02T12:14:14.041Z,8.45
2023-10-02T12:16:42.927Z,8.32
2023-10-02T12:19:11.579Z,8.38
2023-10-02T12:21:38.925Z,7.55
2023-10-02T12:24:08.724Z,7.88
2023-10-02T12:26:36.222Z,7.72
2023-10-02T12:29:04.051Z,8.05
2023-10-02T12:31:35.283Z,8.20
2023-10-02T12:34:02.434Z,8.02
2023-10-02T12:36:29.642Z,8.00
2023-10-02T12:38:58.721Z,8.02
2023-10-02T12:41:26.837Z,8.25
2023-10-02T12:43:57.493Z,7.10
2023-10-02T12:46:25.577Z,7.85
2023-10-02T12:48:53.128Z,8.32
2023-10-02T12:51:20.652Z,8.20
2023-10-02T12:53:48.058Z,8.02
2023-10-02T12:56:25.657Z,7.63
2023-10-02T12:58:53.995Z,8.05
2023-10-02T13:01:25.644Z,8.02
2023-10-02T13:03:53.610Z,8.05
2023-10-02T13:06:22.096Z,8.25
2023-10-02T13:08:49.344Z,8.13
2023-10-02T13:11:20.052Z,8.10
2023-10-02T13:13:52.436Z,8.07
2023-10-02T13:16:20.022Z,8.25
2023-10-02T13:18:47.822Z,8.02
2023-10-02T13:21:16.042Z,8.05
2023-10-02T13:23:43.913Z,8.60
2023-10-02T13:26:11.650Z,8.10
2023-10-02T13:28:39.500Z,8.68
2023-10-02T13:31:14.607Z,8.43
2023-10-02T13:33:43.124Z,7.88
2023-10-02T13:36:10.585Z,8.45
2023-10-02T13:38:37.855Z,8.40
2023-10-02T13:41:10.495Z,8.48
2023-10-02T13:43:42.136Z,8.93
2023-10-02T13:46:10.948Z,9.10
2023-10-02T13:48:41.527Z,9.10
2023-10-02T13:51:09.128Z,8.85
2023-10-02T13:53:37.143Z,9.00
2023-10-02T13:56:10.278Z,8.98
2023-10-02T13:58:41.137Z,8.85
2023-10-02T14:01:08.782Z,9.30
2023-10-02T14:03:36.781Z,9.40
2023-10-02T14:06:08.749Z,9.50
2023-10-02T14:08:36.291Z,9.57
2023-10-02T14:11:04.309Z,9.07
2023-10-02T14:13:32.732Z,9.70
2023-10-02T14:16:06.501Z,9.65
2023-10-02T14:18:36.065Z,9.80
2023-10-02T14:21:06.191Z,9.63
2023-10-02T14:23:35.238Z,9.07
2023-10-02T14:26:03.073Z,10.07
2023-10-02T14:28:31.022Z,9.75
2023-10-02T14:30:58.473Z,9.95
2023-10-02T14:33:25.739Z,9.05
2023-10-02T14:36:10.018Z,9.63
2023-10-02T14:38:38.653Z,9.90
2023-10-02T14:41:09.140Z,9.10
2023-10-02T14:43:36.560Z,9.35
2023-10-02T14:46:05.518Z,9.55
2023-10-02T14:48:46.182Z,9.65
2023-10-02T14:51:14.971Z,9.77
2023-10-02T14:53:42.485Z,9.23
2023-10-02T14:56:10.180Z,9.65
2023-10-02T14:58:47.812Z,9.90
2023-10-02T15:01:18.371Z,9.85
2023-10-02T15:03:46.837Z,8.70
2023-10-02T15:06:15.012Z,9.27
2023-10-02T15:08:42.964Z,9.50
2023-10-02T15:11:16.157Z,10.15
2023-10-02T15:13:44.143Z,9.32
2023-10-02T15:16:13.149Z,10.02
2023-10-02T15:18:41.400Z,9.77
2023-10-02T15:21:12.207Z,9.38
2023-10-02T15:23:41.251Z,9.48
2023-10-02T15:26:08.713Z,9.18
2023-10-02T15:28:35.911Z,9.82
2023-10-02T15:31:03.910Z,9.60
2023-10-02T15:33:36.880Z,10.10
2023-10-02T15:36:04.138Z,9.88
2023-10-02T15:38:32.409Z,9.85
2023-10-02T15:41:02.969Z,9.32
2023-10-02T15:43:30.559Z,9.75
2023-10-02T15:45:59.799Z,9.50
2023-10-02T15:48:27.442Z,9.50
2023-10-02T15:50:55.214Z,9.85
2023-10-02T15:53:25.591Z,10.13
2023-10-02T15:55:53.343Z,9.30
2023-10-02T15:58:20.582Z,9.90
2023-10-02T16:00:50.613Z,9.30
2023-10-02T16:03:18.348Z,10.23
2023-10-02T16:05:48.146Z,9.65
2023-10-02T16:08:15.405Z,10.55
2023-10-02T16:10:42.631Z,10.55
2023-10-02T16:13:09.856Z,10.52
2023-10-02T16:15:37.188Z,10.05
2023-10-02T16:18:06.869Z,10.57
2023-10-02T16:20:36.305Z,10.43
2023-10-02T16:23:03.932Z,9.80
2023-10-02T16:25:32.383Z,10.30
2023-10-02T16:27:59.911Z,9.38
2023-10-02T16:30:28.066Z,9.63
2023-10-02T16:32:56.185Z,9.48
2023-10-02T16:35:32.291Z,9.57
2023-10-02T16:38:02.189Z,9.55
2023-10-02T16:40:30.279Z,9.65
2023-10-02T16:42:58.234Z,9.45
2023-10-02T16:45:25.674Z,9.90
2023-10-02T16:47:53.652Z,8.75
2023-10-02T16:50:21.582Z,9.23
2023-10-02T16:52:49.463Z,9.20
2023-10-02T16:55:20.554Z,9.73
2023-10-02T16:57:51.783Z,9.82
2023-10-02T17:00:25.794Z,9.77
2023-10-02T17:02:53.379Z,8.90
2023-10-02T17:05:21.104Z,9.50
2023-10-02T17:07:51.900Z,9.75
2023-10-02T17:10:22.369Z,9.23
2023-10-02T17:12:56.180Z,9.75
2023-10-02T17:15:23.500Z,9.82
2023-10-02T17:17:51.151Z,9.68
2023-10-02T17:20:19.417Z,9.90
2023-10-02T17:22:47.123Z,10.13
2023-10-02T17:25:15.538Z,9.90
2023-10-02T17:27:43.794Z,9.43
2023-10-02T17:30:13.552Z,10.45
2023-10-02T17:32:41.366Z,10.15
2023-10-02T17:35:11.983Z,10.48
2023-10-02T17:37:39.651Z,9.57
2023-10-02T17:40:14.103Z,10.00
2023-10-02T17:42:41.439Z,9.65
2023-10-02T17:45:09.164Z,9.93
2023-10-02T17:47:42.717Z,10.25
2023-10-02T17:50:11.332Z,9.88
2023-10-02T17:52:42.560Z,9.75
2023-10-02T17:55:10.499Z,9.40
2023-10-02T17:57:37.727Z,9.45
2023-10-02T18:00:05.970Z,9.32
2023-10-02T18:02:36.148Z,8.95
2023-10-02T18:05:04.532Z,10.18
2023-10-02T18:07:32.316Z,9.80
2023-10-02T18:09:59.693Z,10.15
2023-10-02T18:12:26.944Z,10.68
2023-10-02T18:14:54.178Z,9.82
2023-10-02T18:17:21.339Z,10.17
2023-10-02T18:19:48.763Z,10.47
2023-10-02T18:22:16.599Z,10.05
2023-10-02T18:24:46.434Z,10.77
2023-10-02T18:27:13.666Z,10.13
2023-10-02T18:29:41.311Z,10.35
2023-10-02T18:32:08.869Z,10.20
2023-10-02T18:34:43.129Z,9.80
2023-10-02T18:37:12.768Z,10.17
2023-10-02T18:39:40.220Z,11.10
2023-10-02T18:42:07.719Z,11.00
2023-10-02T18:44:35.859Z,11.83
2023-10-02T18:47:03.629Z,11.70
2023-10-02T18:49:31.178Z,12.00
2023-10-02T18:51:59.830Z,12.93
2023-10-02T18:54:26.976Z,13.23
2023-10-02T18:56:54.833Z,13.97
2023-10-02T18:59:22.053Z,12.93
2023-10-02T19:01:49.277Z,12.37
2023-10-02T19:04:16.659Z,12.67
2023-10-02T19:06:43.923Z,11.00
2023-10-02T19:09:13.236Z,12.10
2023-10-02T19:11:40.457Z,12.77
2023-10-02T19:14:08.053Z,13.23
2023-10-02T19:16:35.297Z,12.40
2023-10-02T19:19:03.505Z,12.60
2023-10-02T19:21:31.761Z,11.57
2023-10-02T19:23:59.618Z,12.13
2023-10-02T19:26:33.387Z,11.70
2023-10-02T19:29:02.563Z,11.03
2023-10-02T19:31:31.243Z,10.63
2023-10-02T19:33:58.783Z,11.33
2023-10-02T19:36:26.073Z,10.67
2023-10-02T19:38:53.370Z,11.00
2023-10-02T19:41:21.116Z,12.00
2023-10-02T19:43:51.391Z,11.20
2023-10-02T19:46:18.739Z,11.47
2023-10-02T19:48:45.993Z,10.97
2023-10-02T19:51:14.603Z,10.30
2023-10-02T19:53:42.148Z,10.87
2023-10-02T19:56:10.010Z,11.83
2023-10-02T19:58:37.422Z,11.20
2023-10-02T20:01:05.504Z,11.93
2023-10-02T20:03:33.044Z,11.17
2023-10-02T20:06:00.821Z,10.53
2023-10-02T20:08:28.764Z,11.30
2023-10-02T20:10:57.356Z,11.73
2023-10-02T20:13:24.591Z,10.93
2023-10-02T20:15:52.741Z,11.80
2023-10-02T20:18:20.061Z,11.03
2023-10-02T20:20:50.583Z,10.93
2023-10-02T20:23:18.144Z,10.63
2023-10-02T20:25:45.564Z,9.97
2023-10-02T20:28:12.873Z,11.30
2023-10-02T20:30:40.653Z,10.93
2023-10-02T20:33:08.460Z,10.13
2023-10-02T20:35:39.870Z,10.67
2023-10-02T20:38:07.365Z,9.83
2023-10-02T20:40:34.836Z,11.03
2023-10-02T20:43:02.614Z,10.47
2023-10-02T20:45:30.548Z,11.07
2023-10-02T20:47:58.302Z,11.20
2023-10-02T20:50:26.501Z,11.30
2023-10-02T20:52:53.795Z,11.00
2023-10-02T20:55:21.028Z,10.97
2023-10-02T20:57:49.344Z,10.97
2023-10-02T21:00:16.746Z,11.90
2023-10-02T21:02:45.293Z,11.63
2023-10-02T21:05:13.341Z,11.80
2023-10-02T21:07:42.043Z,11.30
2023-10-02T21:10:10.073Z,11.17
2023-10-02T21:12:41.234Z,11.37
2023-10-02T21:15:15.334Z,11.50
2023-10-02T21:17:43.120Z,11.73
2023-10-02T21:20:12.867Z,11.73
2023-10-02T21:22:40.256Z,12.30
2023-10-02T21:25:10.348Z,11.47
2023-10-02T21:27:41.072Z,12.20
2023-10-02T21:30:11.613Z,11.47
2023-10-02T21:32:43.065Z,11.27
2023-10-02T21:35:12.695Z,11.53
2023-10-02T21:37:40.027Z,10.93
2023-10-02T21:40:07.708Z,11.53
2023-10-02T21:42:35.837Z,10.87
2023-10-02T21:45:03.657Z,11.13
2023-10-02T21:47:31.032Z,11.87
2023-10-02T21:49:58.467Z,12.13
2023-10-02T21:52:25.722Z,11.90
2023-10-02T21:54:55.383Z,12.27
2023-10-02T21:57:23.831Z,11.37
2023-10-02T21:59:51.944Z,11.97
2023-10-02T22:02:20.362Z,11.30
2023-10-02T22:04:50.655Z,12.00
2023-10-02T22:07:17.882Z,11.73
2023-10-02T22:09:45.864Z,11.27
2023-10-02T22:12:13.068Z,11.73
2023-10-02T22:14:40.857Z,13.00
2023-10-02T22:17:09.741Z,11.70
2023-10-02T22:19:38.302Z,12.00
2023-10-02T22:22:07.158Z,11.97
2023-10-02T22:24:35.236Z,12.27
2023-10-02T22:27:02.636Z,11.47
2023-10-02T22:29:33.035Z,11.63
2023-10-02T22:32:00.541Z,11.50
2023-10-02T22:34:41.641Z,11.63
2023-10-02T22:37:14.830Z,12.13
2023-10-02T22:39:42.491Z,12.13
2023-10-02T22:42:12.410Z,12.70
2023-10-02T22:44:39.959Z,12.07
2023-10-02T22:47:07.540Z,12.37
2023-10-02T22:49:36.540Z,12.50
2023-10-02T22:52:04.662Z,12.10
2023-10-02T22:54:31.956Z,11.40
2023-10-02T22:57:00.489Z,12.33
2023-10-02T22:59:27.934Z,12.13
2023-10-02T23:01:55.409Z,12.47
2023-10-02T23:04:22.770Z,12.70
2023-10-02T23:06:50.780Z,13.03
2023-10-02T23:09:18.190Z,12.80
2023-10-02T23:11:45.683Z,12.67
2023-10-02T23:14:12.975Z,13.27
2023-10-02T23:16:41.088Z,12.27
2023-10-02T23:19:08.543Z,12.83
2023-10-02T23:21:35.798Z,12.33
2023-10-02T23:24:03.810Z,12.77
2023-10-02T23:26:31.227Z,13.20
2023-10-02T23:28:59.043Z,12.23
2023-10-02T23:31:27.497Z,12.17
2023-10-02T23:33:55.469Z,13.07
2023-10-02T23:36:23.795Z,12.53
2023-10-02T23:38:51.071Z,13.10
2023-10-02T23:41:18.240Z,12.60
2023-10-02T23:43:46.226Z,13.00
2023-10-02T23:46:13.558Z,13.70
2023-10-02T23:48:40.777Z,13.17
2023-10-02T23:51:13.536Z,12.43
2023-10-02T23:53:41.853Z,13.83
2023-10-02T23:56:14.390Z,13.60
2023-10-02T23:58:43.197Z,13.20
